sensor_id;sensor_type;location;lat;lon;timestamp;temperature;humidity
44277;DHT22;29973;43.742;1.236;2022-09-09T00:02:20;16.50;99.90
44277;DHT22;29973;43.742;1.236;2022-09-09T00:05:08;16.60;99.90
44277;DHT22;29973;43.742;1.236;2022-09-09T00:07:43;16.60;99.90
44277;DHT22;29973;43.742;1.236;2022-09-09T00:16:01;16.50;99.90
44277;DHT22;29973;43.742;1.236;2022-09-09T00:18:49;16.40;99.90
44277;DHT22;29973;43.742;1.236;2022-09-09T00:21:18;16.40;99.90
44277;DHT22;29973;43.742;1.236;2022-09-09T00:23:56;16.50;99.90
44277;DHT22;29973;43.742;1.236;2022-09-09T00:26:25;16.30;99.90
44277;DHT22;29973;43.742;1.236;2022-09-09T00:29:14;16.40;99.90
44277;DHT22;29973;43.742;1.236;2022-09-09T00:31:42;16.30;99.90
44277;DHT22;29973;43.742;1.236;2022-09-09T00:34:21;16.30;99.90
44277;DHT22;29973;43.742;1.236;2022-09-09T00:36:50;16.30;99.90
44277;DHT22;29973;43.742;1.236;2022-09-09T00:39:34;16.30;99.90
44277;DHT22;29973;43.742;1.236;2022-09-09T00:45:09;16.40;99.90
44277;DHT22;29973;43.742;1.236;2022-09-09T00:47:51;16.30;99.90
44277;DHT22;29973;43.742;1.236;2022-09-09T00:50:24;16.30;99.90
44277;DHT22;29973;43.742;1.236;2022-09-09T00:58:08;16.50;99.90
44277;DHT22;29973;43.742;1.236;2022-09-09T01:00:56;16.60;99.90
44277;DHT22;29973;43.742;1.236;2022-09-09T01:06:00;16.70;99.90
44277;DHT22;29973;43.742;1.236;2022-09-09T01:11:23;16.70;99.90
44277;DHT22;29973;43.742;1.236;2022-09-09T01:13:58;16.70;99.90
44277;DHT22;29973;43.742;1.236;2022-09-09T01:16:27;16.80;99.90
44277;DHT22;29973;43.742;1.236;2022-09-09T01:18:54;16.80;99.90
44277;DHT22;29973;43.742;1.236;2022-09-09T01:26:49;17.00;99.90
44277;DHT22;29973;43.742;1.236;2022-09-09T01:29:18;17.00;99.90
44277;DHT22;29973;43.742;1.236;2022-09-09T01:34:23;17.00;99.90
44277;DHT22;29973;43.742;1.236;2022-09-09T01:39:16;17.00;99.90
44277;DHT22;29973;43.742;1.236;2022-09-09T01:41:42;16.90;99.90
44277;DHT22;29973;43.742;1.236;2022-09-09T01:44:08;16.90;99.90
44277;DHT22;29973;43.742;1.236;2022-09-09T01:46:35;16.80;99.90
44277;DHT22;29973;43.742;1.236;2022-09-09T01:49:02;16.90;99.90
44277;DHT22;29973;43.742;1.236;2022-09-09T01:51:29;16.90;99.90
44277;DHT22;29973;43.742;1.236;2022-09-09T01:53:55;16.80;99.90
44277;DHT22;29973;43.742;1.236;2022-09-09T02:04:43;16.80;99.90
44277;DHT22;29973;43.742;1.236;2022-09-09T02:07:25;16.80;99.90
44277;DHT22;29973;43.742;1.236;2022-09-09T02:10:16;16.90;99.90
44277;DHT22;29973;43.742;1.236;2022-09-09T02:12:47;17.00;99.90
44277;DHT22;29973;43.742;1.236;2022-09-09T02:15:22;17.00;99.90
44277;DHT22;29973;43.742;1.236;2022-09-09T02:17:50;16.80;99.90
44277;DHT22;29973;43.742;1.236;2022-09-09T02:20:18;16.80;99.90
44277;DHT22;29973;43.742;1.236;2022-09-09T02:22:46;16.70;99.90
44277;DHT22;29973;43.742;1.236;2022-09-09T02:25:15;17.00;99.90
44277;DHT22;29973;43.742;1.236;2022-09-09T02:27:43;17.00;99.90
44277;DHT22;29973;43.742;1.236;2022-09-09T02:30:11;17.00;99.90
44277;DHT22;29973;43.742;1.236;2022-09-09T02:32:38;17.10;99.90
44277;DHT22;29973;43.742;1.236;2022-09-09T02:35:09;17.00;99.90
44277;DHT22;29973;43.742;1.236;2022-09-09T02:37:38;16.90;99.90
44277;DHT22;29973;43.742;1.236;2022-09-09T02:40:05;16.80;99.90
44277;DHT22;29973;43.742;1.236;2022-09-09T02:42:32;16.80;99.90
44277;DHT22;29973;43.742;1.236;2022-09-09T02:44:58;16.90;99.90
44277;DHT22;29973;43.742;1.236;2022-09-09T02:47:35;16.80;99.90
44277;DHT22;29973;43.742;1.236;2022-09-09T02:50:13;16.70;99.90
44277;DHT22;29973;43.742;1.236;2022-09-09T02:55:41;16.80;99.90
44277;DHT22;29973;43.742;1.236;2022-09-09T02:58:12;16.80;99.90
44277;DHT22;29973;43.742;1.236;2022-09-09T03:00:43;16.90;99.90
44277;DHT22;29973;43.742;1.236;2022-09-09T03:03:09;16.90;99.90
44277;DHT22;29973;43.742;1.236;2022-09-09T03:05:35;16.90;99.90
44277;DHT22;29973;43.742;1.236;2022-09-09T03:08:01;17.00;99.90
44277;DHT22;29973;43.742;1.236;2022-09-09T03:10:27;16.90;99.90
44277;DHT22;29973;43.742;1.236;2022-09-09T03:12:54;16.80;99.90
44277;DHT22;29973;43.742;1.236;2022-09-09T03:15:21;16.90;99.90
44277;DHT22;29973;43.742;1.236;2022-09-09T03:17:46;17.00;99.90
44277;DHT22;29973;43.742;1.236;2022-09-09T03:20:12;17.00;99.90
44277;DHT22;29973;43.742;1.236;2022-09-09T03:22:38;17.00;99.90
44277;DHT22;29973;43.742;1.236;2022-09-09T03:25:04;17.10;99.90
44277;DHT22;29973;43.742;1.236;2022-09-09T03:27:31;16.90;99.90
44277;DHT22;29973;43.742;1.236;2022-09-09T03:29:57;16.80;99.90
44277;DHT22;29973;43.742;1.236;2022-09-09T03:32:23;16.90;99.90
44277;DHT22;29973;43.742;1.236;2022-09-09T03:34:51;16.90;99.90
44277;DHT22;29973;43.742;1.236;2022-09-09T03:37:20;17.00;99.90
44277;DHT22;29973;43.742;1.236;2022-09-09T03:39:46;17.00;99.90
44277;DHT22;29973;43.742;1.236;2022-09-09T03:42:13;17.00;99.90
44277;DHT22;29973;43.742;1.236;2022-09-09T03:44:45;16.90;99.90
44277;DHT22;29973;43.742;1.236;2022-09-09T03:47:19;16.80;99.90
44277;DHT22;29973;43.742;1.236;2022-09-09T03:49:47;16.90;99.90
44277;DHT22;29973;43.742;1.236;2022-09-09T03:52:14;16.90;99.90
44277;DHT22;29973;43.742;1.236;2022-09-09T03:54:40;16.80;99.90
44277;DHT22;29973;43.742;1.236;2022-09-09T03:57:09;16.80;99.90
44277;DHT22;29973;43.742;1.236;2022-09-09T03:59:35;16.80;99.90
44277;DHT22;29973;43.742;1.236;2022-09-09T04:02:01;16.80;99.90
44277;DHT22;29973;43.742;1.236;2022-09-09T04:04:27;16.90;99.90
44277;DHT22;29973;43.742;1.236;2022-09-09T04:06:53;16.90;99.90
44277;DHT22;29973;43.742;1.236;2022-09-09T04:09:19;16.90;99.90
44277;DHT22;29973;43.742;1.236;2022-09-09T04:11:45;16.80;99.90
44277;DHT22;29973;43.742;1.236;2022-09-09T04:14:11;16.90;99.90
44277;DHT22;29973;43.742;1.236;2022-09-09T04:16:38;16.90;99.90
44277;DHT22;29973;43.742;1.236;2022-09-09T04:19:04;16.80;99.90
44277;DHT22;29973;43.742;1.236;2022-09-09T04:21:32;16.90;99.90
44277;DHT22;29973;43.742;1.236;2022-09-09T04:23:57;17.00;99.90
44277;DHT22;29973;43.742;1.236;2022-09-09T04:26:23;16.80;99.90
44277;DHT22;29973;43.742;1.236;2022-09-09T04:28:49;16.80;99.90
44277;DHT22;29973;43.742;1.236;2022-09-09T04:31:21;16.80;99.90
44277;DHT22;29973;43.742;1.236;2022-09-09T04:33:49;16.80;99.90
44277;DHT22;29973;43.742;1.236;2022-09-09T04:36:15;16.80;99.90
44277;DHT22;29973;43.742;1.236;2022-09-09T04:38:41;16.70;99.90
44277;DHT22;29973;43.742;1.236;2022-09-09T04:41:07;16.60;99.90
44277;DHT22;29973;43.742;1.236;2022-09-09T04:43:33;16.70;99.90
44277;DHT22;29973;43.742;1.236;2022-09-09T04:45:59;16.70;99.90
44277;DHT22;29973;43.742;1.236;2022-09-09T04:48:26;16.60;99.90
44277;DHT22;29973;43.742;1.236;2022-09-09T04:51:00;16.50;99.90
44277;DHT22;29973;43.742;1.236;2022-09-09T04:53:27;16.60;99.90
44277;DHT22;29973;43.742;1.236;2022-09-09T04:56:01;16.70;99.90
44277;DHT22;29973;43.742;1.236;2022-09-09T04:58:27;16.60;99.90
44277;DHT22;29973;43.742;1.236;2022-09-09T05:00:53;16.60;99.90
44277;DHT22;29973;43.742;1.236;2022-09-09T05:03:19;16.60;99.90
44277;DHT22;29973;43.742;1.236;2022-09-09T05:05:45;16.60;99.90
44277;DHT22;29973;43.742;1.236;2022-09-09T05:08:11;16.50;99.90
44277;DHT22;29973;43.742;1.236;2022-09-09T05:10:38;16.50;99.90
44277;DHT22;29973;43.742;1.236;2022-09-09T05:13:04;16.50;99.90
44277;DHT22;29973;43.742;1.236;2022-09-09T05:15:30;16.50;99.90
44277;DHT22;29973;43.742;1.236;2022-09-09T05:17:58;16.60;99.90
44277;DHT22;29973;43.742;1.236;2022-09-09T05:20:24;16.70;99.90
44277;DHT22;29973;43.742;1.236;2022-09-09T05:22:53;16.70;99.90
44277;DHT22;29973;43.742;1.236;2022-09-09T05:25:19;16.70;99.90
44277;DHT22;29973;43.742;1.236;2022-09-09T05:27:45;16.60;99.90
44277;DHT22;29973;43.742;1.236;2022-09-09T05:30:11;16.60;99.90
44277;DHT22;29973;43.742;1.236;2022-09-09T05:32:37;16.80;99.90
44277;DHT22;29973;43.742;1.236;2022-09-09T05:35:03;16.90;99.90
44277;DHT22;29973;43.742;1.236;2022-09-09T05:37:30;17.00;99.90
44277;DHT22;29973;43.742;1.236;2022-09-09T05:39:56;17.00;99.90
44277;DHT22;29973;43.742;1.236;2022-09-09T05:42:23;17.00;99.90
44277;DHT22;29973;43.742;1.236;2022-09-09T05:44:49;17.00;99.90
44277;DHT22;29973;43.742;1.236;2022-09-09T05:47:16;17.00;99.90
44277;DHT22;29973;43.742;1.236;2022-09-09T05:49:42;17.00;99.90
44277;DHT22;29973;43.742;1.236;2022-09-09T05:52:08;17.00;99.90
44277;DHT22;29973;43.742;1.236;2022-09-09T05:54:35;17.00;99.90
44277;DHT22;29973;43.742;1.236;2022-09-09T05:57:03;17.00;99.90
44277;DHT22;29973;43.742;1.236;2022-09-09T05:59:29;17.10;99.90
44277;DHT22;29973;43.742;1.236;2022-09-09T06:01:54;17.10;99.90
44277;DHT22;29973;43.742;1.236;2022-09-09T06:04:20;17.10;99.90
44277;DHT22;29973;43.742;1.236;2022-09-09T06:06:47;17.20;99.90
44277;DHT22;29973;43.742;1.236;2022-09-09T06:09:14;17.40;99.90
44277;DHT22;29973;43.742;1.236;2022-09-09T06:11:42;17.30;99.90
44277;DHT22;29973;43.742;1.236;2022-09-09T06:14:08;17.40;99.90
44277;DHT22;29973;43.742;1.236;2022-09-09T06:16:34;17.50;99.90
44277;DHT22;29973;43.742;1.236;2022-09-09T06:19:01;17.40;99.90
44277;DHT22;29973;43.742;1.236;2022-09-09T06:21:37;17.50;99.90
44277;DHT22;29973;43.742;1.236;2022-09-09T06:24:04;17.60;99.90
44277;DHT22;29973;43.742;1.236;2022-09-09T06:26:32;17.60;99.90
44277;DHT22;29973;43.742;1.236;2022-09-09T06:28:59;17.70;99.90
44277;DHT22;29973;43.742;1.236;2022-09-09T06:31:27;17.70;99.90
44277;DHT22;29973;43.742;1.236;2022-09-09T06:33:56;17.60;99.90
44277;DHT22;29973;43.742;1.236;2022-09-09T06:36:27;17.80;99.90
44277;DHT22;29973;43.742;1.236;2022-09-09T06:38:54;17.90;99.90
44277;DHT22;29973;43.742;1.236;2022-09-09T06:41:21;18.00;99.90
44277;DHT22;29973;43.742;1.236;2022-09-09T06:43:48;17.90;99.90
44277;DHT22;29973;43.742;1.236;2022-09-09T06:46:16;17.80;99.90
44277;DHT22;29973;43.742;1.236;2022-09-09T06:48:43;17.70;99.90
44277;DHT22;29973;43.742;1.236;2022-09-09T06:51:20;17.60;99.90
44277;DHT22;29973;43.742;1.236;2022-09-09T06:53:53;17.70;99.90
44277;DHT22;29973;43.742;1.236;2022-09-09T06:56:34;17.80;99.90
44277;DHT22;29973;43.742;1.236;2022-09-09T06:59:02;17.80;99.90
44277;DHT22;29973;43.742;1.236;2022-09-09T07:01:34;17.70;99.90
44277;DHT22;29973;43.742;1.236;2022-09-09T07:04:00;17.70;99.90
44277;DHT22;29973;43.742;1.236;2022-09-09T07:06:32;17.70;99.90
44277;DHT22;29973;43.742;1.236;2022-09-09T07:09:04;17.70;99.90
44277;DHT22;29973;43.742;1.236;2022-09-09T07:11:37;17.70;99.90
44277;DHT22;29973;43.742;1.236;2022-09-09T07:14:02;17.60;99.90
44277;DHT22;29973;43.742;1.236;2022-09-09T07:16:28;17.70;99.90
44277;DHT22;29973;43.742;1.236;2022-09-09T07:18:55;17.70;99.90
44277;DHT22;29973;43.742;1.236;2022-09-09T07:21:24;17.90;99.90
44277;DHT22;29973;43.742;1.236;2022-09-09T07:23:51;18.00;99.90
44277;DHT22;29973;43.742;1.236;2022-09-09T07:26:20;18.00;99.90
44277;DHT22;29973;43.742;1.236;2022-09-09T07:28:47;18.00;99.90
44277;DHT22;29973;43.742;1.236;2022-09-09T07:31:24;18.00;99.90
44277;DHT22;29973;43.742;1.236;2022-09-09T07:33:50;18.10;99.90
44277;DHT22;29973;43.742;1.236;2022-09-09T07:36:24;18.00;99.90
44277;DHT22;29973;43.742;1.236;2022-09-09T07:38:53;17.80;99.90
44277;DHT22;29973;43.742;1.236;2022-09-09T07:41:24;17.80;99.90
44277;DHT22;29973;43.742;1.236;2022-09-09T07:43:50;17.90;99.90
44277;DHT22;29973;43.742;1.236;2022-09-09T07:46:18;18.00;99.90
44277;DHT22;29973;43.742;1.236;2022-09-09T07:48:49;18.10;99.90
44277;DHT22;29973;43.742;1.236;2022-09-09T07:51:20;18.30;99.90
44277;DHT22;29973;43.742;1.236;2022-09-09T07:53:48;18.60;99.90
44277;DHT22;29973;43.742;1.236;2022-09-09T07:56:16;18.60;99.90
44277;DHT22;29973;43.742;1.236;2022-09-09T07:58:45;18.40;99.90
44277;DHT22;29973;43.742;1.236;2022-09-09T08:03:45;18.30;99.90
44277;DHT22;29973;43.742;1.236;2022-09-09T08:06:11;18.30;99.90
44277;DHT22;29973;43.742;1.236;2022-09-09T08:08:39;18.60;99.90
44277;DHT22;29973;43.742;1.236;2022-09-09T08:11:12;18.60;99.90
44277;DHT22;29973;43.742;1.236;2022-09-09T08:13:39;18.30;99.90
44277;DHT22;29973;43.742;1.236;2022-09-09T08:16:17;18.30;99.90
44277;DHT22;29973;43.742;1.236;2022-09-09T08:18:43;18.40;99.90
44277;DHT22;29973;43.742;1.236;2022-09-09T08:21:11;18.60;99.90
44277;DHT22;29973;43.742;1.236;2022-09-09T08:23:39;18.40;99.90
44277;DHT22;29973;43.742;1.236;2022-09-09T08:26:14;17.80;99.90
44277;DHT22;29973;43.742;1.236;2022-09-09T08:28:41;16.80;99.90
44277;DHT22;29973;43.742;1.236;2022-09-09T08:31:16;16.60;99.90
44277;DHT22;29973;43.742;1.236;2022-09-09T08:33:42;16.40;99.90
44277;DHT22;29973;43.742;1.236;2022-09-09T08:36:16;16.40;99.90
44277;DHT22;29973;43.742;1.236;2022-09-09T08:38:42;16.30;99.90
44277;DHT22;29973;43.742;1.236;2022-09-09T08:44:07;16.20;99.90
44277;DHT22;29973;43.742;1.236;2022-09-09T08:47:02;16.40;99.90
44277;DHT22;29973;43.742;1.236;2022-09-09T08:55:22;16.30;99.90
44277;DHT22;29973;43.742;1.236;2022-09-09T08:57:52;16.20;99.90
44277;DHT22;29973;43.742;1.236;2022-09-09T09:00:19;16.10;99.90
44277;DHT22;29973;43.742;1.236;2022-09-09T09:05:47;16.40;99.90
44277;DHT22;29973;43.742;1.236;2022-09-09T09:08:43;16.80;99.90
44277;DHT22;29973;43.742;1.236;2022-09-09T09:11:12;16.70;99.90
44277;DHT22;29973;43.742;1.236;2022-09-09T09:13:53;17.00;99.90
44277;DHT22;29973;43.742;1.236;2022-09-09T09:19:15;16.90;99.90
44277;DHT22;29973;43.742;1.236;2022-09-09T09:21:44;16.60;99.90
44277;DHT22;29973;43.742;1.236;2022-09-09T09:24:21;16.70;99.90
44277;DHT22;29973;43.742;1.236;2022-09-09T09:26:49;16.50;99.90
44277;DHT22;29973;43.742;1.236;2022-09-09T09:29:19;16.60;99.90
44277;DHT22;29973;43.742;1.236;2022-09-09T09:31:56;16.80;99.90
44277;DHT22;29973;43.742;1.236;2022-09-09T09:34:24;16.90;99.90
44277;DHT22;29973;43.742;1.236;2022-09-09T09:36:59;16.40;99.90
44277;DHT22;29973;43.742;1.236;2022-09-09T09:39:32;16.30;99.90
44277;DHT22;29973;43.742;1.236;2022-09-09T09:42:14;16.30;99.90
44277;DHT22;29973;43.742;1.236;2022-09-09T09:44:41;16.20;99.90
44277;DHT22;29973;43.742;1.236;2022-09-09T09:47:21;16.20;99.90
44277;DHT22;29973;43.742;1.236;2022-09-09T09:49:57;16.60;99.90
44277;DHT22;29973;43.742;1.236;2022-09-09T09:52:29;16.50;99.90
44277;DHT22;29973;43.742;1.236;2022-09-09T09:54:56;16.00;99.90
44277;DHT22;29973;43.742;1.236;2022-09-09T09:57:28;16.40;99.90
44277;DHT22;29973;43.742;1.236;2022-09-09T10:02:39;17.00;99.90
44277;DHT22;29973;43.742;1.236;2022-09-09T10:07:43;16.80;99.90
44277;DHT22;29973;43.742;1.236;2022-09-09T10:10:31;16.90;99.90
44277;DHT22;29973;43.742;1.236;2022-09-09T10:19:15;17.90;99.90
44277;DHT22;29973;43.742;1.236;2022-09-09T10:30:05;18.10;99.90
44277;DHT22;29973;43.742;1.236;2022-09-09T10:35:35;18.30;99.90
44277;DHT22;29973;43.742;1.236;2022-09-09T10:40:33;18.40;99.90
44277;DHT22;29973;43.742;1.236;2022-09-09T10:45:59;18.40;99.90
44277;DHT22;29973;43.742;1.236;2022-09-09T10:56:43;19.00;99.90
44277;DHT22;29973;43.742;1.236;2022-09-09T10:59:18;19.40;99.90
44277;DHT22;29973;43.742;1.236;2022-09-09T11:02:00;19.00;99.90
44277;DHT22;29973;43.742;1.236;2022-09-09T11:06:59;19.30;99.90
44277;DHT22;29973;43.742;1.236;2022-09-09T11:09:30;19.10;99.90
44277;DHT22;29973;43.742;1.236;2022-09-09T11:11:59;18.80;99.90
44277;DHT22;29973;43.742;1.236;2022-09-09T11:14:47;18.80;99.90
44277;DHT22;29973;43.742;1.236;2022-09-09T11:17:23;19.00;99.90
44277;DHT22;29973;43.742;1.236;2022-09-09T11:19:50;19.50;99.90
44277;DHT22;29973;43.742;1.236;2022-09-09T11:22:39;19.20;99.90
44277;DHT22;29973;43.742;1.236;2022-09-09T11:25:29;19.50;99.90
44277;DHT22;29973;43.742;1.236;2022-09-09T11:28:10;19.90;99.90
44277;DHT22;29973;43.742;1.236;2022-09-09T11:38:52;20.50;99.90
44277;DHT22;29973;43.742;1.236;2022-09-09T11:41:20;20.50;99.90
44277;DHT22;29973;43.742;1.236;2022-09-09T11:43:51;21.00;99.90
44277;DHT22;29973;43.742;1.236;2022-09-09T11:46:20;21.90;99.90
44277;DHT22;29973;43.742;1.236;2022-09-09T11:48:59;21.60;99.90
44277;DHT22;29973;43.742;1.236;2022-09-09T11:51:30;20.90;99.90
44277;DHT22;29973;43.742;1.236;2022-09-09T11:54:30;21.20;99.90
44277;DHT22;29973;43.742;1.236;2022-09-09T11:56:57;21.30;99.90
44277;DHT22;29973;43.742;1.236;2022-09-09T11:59:31;21.40;99.90
44277;DHT22;29973;43.742;1.236;2022-09-09T12:02:21;22.10;99.90
44277;DHT22;29973;43.742;1.236;2022-09-09T12:05:08;22.10;99.90
44277;DHT22;29973;43.742;1.236;2022-09-09T12:07:52;22.40;99.90
44277;DHT22;29973;43.742;1.236;2022-09-09T12:10:30;23.20;99.90
44277;DHT22;29973;43.742;1.236;2022-09-09T12:13:18;22.50;99.90
44277;DHT22;29973;43.742;1.236;2022-09-09T12:15:56;23.50;99.90
44277;DHT22;29973;43.742;1.236;2022-09-09T12:18:40;24.70;99.90
44277;DHT22;29973;43.742;1.236;2022-09-09T12:21:41;24.30;99.90
44277;DHT22;29973;43.742;1.236;2022-09-09T12:24:13;22.80;99.90
44277;DHT22;29973;43.742;1.236;2022-09-09T12:26:58;22.50;99.90
44277;DHT22;29973;43.742;1.236;2022-09-09T12:29:40;22.20;99.90
44277;DHT22;29973;43.742;1.236;2022-09-09T12:32:15;22.80;99.90
44277;DHT22;29973;43.742;1.236;2022-09-09T12:34:53;22.50;99.90
44277;DHT22;29973;43.742;1.236;2022-09-09T12:37:35;23.30;99.90
44277;DHT22;29973;43.742;1.236;2022-09-09T12:40:05;23.30;99.90
44277;DHT22;29973;43.742;1.236;2022-09-09T12:42:31;22.40;99.90
44277;DHT22;29973;43.742;1.236;2022-09-09T12:45:03;21.70;99.90
44277;DHT22;29973;43.742;1.236;2022-09-09T12:47:47;21.80;99.90
44277;DHT22;29973;43.742;1.236;2022-09-09T12:50:25;22.10;99.90
44277;DHT22;29973;43.742;1.236;2022-09-09T12:52:57;22.20;99.90
44277;DHT22;29973;43.742;1.236;2022-09-09T12:55:32;22.80;99.90
44277;DHT22;29973;43.742;1.236;2022-09-09T12:58:00;23.40;99.90
44277;DHT22;29973;43.742;1.236;2022-09-09T13:00:26;22.70;99.90
44277;DHT22;29973;43.742;1.236;2022-09-09T13:02:58;23.00;99.90
44277;DHT22;29973;43.742;1.236;2022-09-09T13:05:31;22.10;99.90
44277;DHT22;29973;43.742;1.236;2022-09-09T13:08:04;23.30;99.90
44277;DHT22;29973;43.742;1.236;2022-09-09T13:10:35;23.60;99.90
44277;DHT22;29973;43.742;1.236;2022-09-09T13:13:04;24.00;99.90
44277;DHT22;29973;43.742;1.236;2022-09-09T13:15:36;23.70;99.90
44277;DHT22;29973;43.742;1.236;2022-09-09T13:18:06;24.00;99.90
44277;DHT22;29973;43.742;1.236;2022-09-09T13:20:36;24.40;99.90
44277;DHT22;29973;43.742;1.236;2022-09-09T13:23:02;24.50;99.90
44277;DHT22;29973;43.742;1.236;2022-09-09T13:25:29;25.30;99.90
44277;DHT22;29973;43.742;1.236;2022-09-09T13:28:19;24.00;99.90
44277;DHT22;29973;43.742;1.236;2022-09-09T13:30:56;27.50;99.90
44277;DHT22;29973;43.742;1.236;2022-09-09T13:33:29;27.00;99.90
44277;DHT22;29973;43.742;1.236;2022-09-09T13:36:04;26.20;99.90
44277;DHT22;29973;43.742;1.236;2022-09-09T13:41:21;24.90;99.90
44277;DHT22;29973;43.742;1.236;2022-09-09T13:43:48;24.70;99.90
44277;DHT22;29973;43.742;1.236;2022-09-09T13:49:19;24.70;99.90
44277;DHT22;29973;43.742;1.236;2022-09-09T13:51:47;24.40;99.90
44277;DHT22;29973;43.742;1.236;2022-09-09T13:54:18;24.20;99.90
44277;DHT22;29973;43.742;1.236;2022-09-09T13:56:44;24.90;99.90
44277;DHT22;29973;43.742;1.236;2022-09-09T13:59:15;25.10;99.90
44277;DHT22;29973;43.742;1.236;2022-09-09T14:01:41;24.90;99.90
44277;DHT22;29973;43.742;1.236;2022-09-09T14:04:07;25.50;99.90
44277;DHT22;29973;43.742;1.236;2022-09-09T14:06:35;27.70;99.90
44277;DHT22;29973;43.742;1.236;2022-09-09T14:09:04;29.80;99.90
44277;DHT22;29973;43.742;1.236;2022-09-09T14:11:30;28.90;99.90
44277;DHT22;29973;43.742;1.236;2022-09-09T14:13:56;29.20;99.90
44277;DHT22;29973;43.742;1.236;2022-09-09T14:16:21;31.90;99.90
44277;DHT22;29973;43.742;1.236;2022-09-09T14:18:47;29.20;99.90
44277;DHT22;29973;43.742;1.236;2022-09-09T14:21:14;29.10;99.90
44277;DHT22;29973;43.742;1.236;2022-09-09T14:23:41;29.10;99.90
44277;DHT22;29973;43.742;1.236;2022-09-09T14:26:07;28.80;99.90
44277;DHT22;29973;43.742;1.236;2022-09-09T14:28:34;28.20;99.90
44277;DHT22;29973;43.742;1.236;2022-09-09T14:31:01;29.40;99.90
44277;DHT22;29973;43.742;1.236;2022-09-09T14:33:27;28.30;99.90
44277;DHT22;29973;43.742;1.236;2022-09-09T14:36:00;30.40;99.90
44277;DHT22;29973;43.742;1.236;2022-09-09T14:38:34;30.50;99.90
44277;DHT22;29973;43.742;1.236;2022-09-09T14:41:04;31.10;99.90
44277;DHT22;29973;43.742;1.236;2022-09-09T14:43:30;31.10;99.90
44277;DHT22;29973;43.742;1.236;2022-09-09T14:46:03;30.80;99.90
44277;DHT22;29973;43.742;1.236;2022-09-09T14:48:31;32.20;99.90
44277;DHT22;29973;43.742;1.236;2022-09-09T14:50:57;30.80;99.90
44277;DHT22;29973;43.742;1.236;2022-09-09T14:53:22;27.50;99.90
44277;DHT22;29973;43.742;1.236;2022-09-09T14:55:48;28.00;99.90
44277;DHT22;29973;43.742;1.236;2022-09-09T14:58:14;26.00;99.90
44277;DHT22;29973;43.742;1.236;2022-09-09T15:00:40;30.30;99.90
44277;DHT22;29973;43.742;1.236;2022-09-09T15:03:06;30.40;99.90
44277;DHT22;29973;43.742;1.236;2022-09-09T15:05:32;28.90;99.90
44277;DHT22;29973;43.742;1.236;2022-09-09T15:07:57;27.50;99.90
44277;DHT22;29973;43.742;1.236;2022-09-09T15:10:24;27.50;99.90
44277;DHT22;29973;43.742;1.236;2022-09-09T15:12:49;29.70;99.90
44277;DHT22;29973;43.742;1.236;2022-09-09T15:15:15;28.90;99.90
44277;DHT22;29973;43.742;1.236;2022-09-09T15:17:41;31.10;99.90
44277;DHT22;29973;43.742;1.236;2022-09-09T15:20:07;27.10;99.90
44277;DHT22;29973;43.742;1.236;2022-09-09T15:22:33;25.10;99.90
44277;DHT22;29973;43.742;1.236;2022-09-09T15:24:59;28.70;99.90
44277;DHT22;29973;43.742;1.236;2022-09-09T15:27:25;30.80;99.90
44277;DHT22;29973;43.742;1.236;2022-09-09T15:29:50;31.00;99.90
44277;DHT22;29973;43.742;1.236;2022-09-09T15:32:17;32.60;99.90
44277;DHT22;29973;43.742;1.236;2022-09-09T15:34:43;30.10;99.90
44277;DHT22;29973;43.742;1.236;2022-09-09T15:37:12;30.00;99.90
44277;DHT22;29973;43.742;1.236;2022-09-09T15:39:39;29.30;99.90
44277;DHT22;29973;43.742;1.236;2022-09-09T15:42:05;26.50;99.90
44277;DHT22;29973;43.742;1.236;2022-09-09T15:44:39;27.90;99.90
44277;DHT22;29973;43.742;1.236;2022-09-09T15:47:05;29.50;99.90
44277;DHT22;29973;43.742;1.236;2022-09-09T15:49:30;30.10;99.90
44277;DHT22;29973;43.742;1.236;2022-09-09T15:51:58;31.20;99.90
44277;DHT22;29973;43.742;1.236;2022-09-09T15:54:25;28.70;99.90
44277;DHT22;29973;43.742;1.236;2022-09-09T15:56:53;28.30;99.90
44277;DHT22;29973;43.742;1.236;2022-09-09T15:59:24;31.20;99.90
44277;DHT22;29973;43.742;1.236;2022-09-09T16:01:50;30.90;99.90
44277;DHT22;29973;43.742;1.236;2022-09-09T16:04:20;32.30;99.90
44277;DHT22;29973;43.742;1.236;2022-09-09T16:06:57;30.90;99.90
44277;DHT22;29973;43.742;1.236;2022-09-09T16:09:24;30.50;99.90
44277;DHT22;29973;43.742;1.236;2022-09-09T16:11:50;30.30;99.90
44277;DHT22;29973;43.742;1.236;2022-09-09T16:14:17;29.80;99.90
44277;DHT22;29973;43.742;1.236;2022-09-09T16:16:43;26.10;99.90
44277;DHT22;29973;43.742;1.236;2022-09-09T16:19:12;27.70;99.90
44277;DHT22;29973;43.742;1.236;2022-09-09T16:21:43;27.10;99.90
44277;DHT22;29973;43.742;1.236;2022-09-09T16:24:12;25.90;99.90
44277;DHT22;29973;43.742;1.236;2022-09-09T16:26:40;25.10;99.90
44277;DHT22;29973;43.742;1.236;2022-09-09T16:29:09;27.80;99.90
44277;DHT22;29973;43.742;1.236;2022-09-09T16:31:35;30.10;99.90
44277;DHT22;29973;43.742;1.236;2022-09-09T16:34:01;32.00;99.90
44277;DHT22;29973;43.742;1.236;2022-09-09T16:36:30;32.30;99.90
44277;DHT22;29973;43.742;1.236;2022-09-09T16:39:02;30.10;99.90
44277;DHT22;29973;43.742;1.236;2022-09-09T16:41:29;30.70;99.90
44277;DHT22;29973;43.742;1.236;2022-09-09T16:43:59;28.40;99.90
44277;DHT22;29973;43.742;1.236;2022-09-09T16:46:28;30.10;99.90
44277;DHT22;29973;43.742;1.236;2022-09-09T16:48:57;31.60;99.90
44277;DHT22;29973;43.742;1.236;2022-09-09T16:51:29;32.20;99.90
44277;DHT22;29973;43.742;1.236;2022-09-09T16:53:57;30.60;99.90
44277;DHT22;29973;43.742;1.236;2022-09-09T16:56:25;31.20;99.90
44277;DHT22;29973;43.742;1.236;2022-09-09T16:58:55;31.10;99.90
44277;DHT22;29973;43.742;1.236;2022-09-09T17:01:25;30.30;99.90
44277;DHT22;29973;43.742;1.236;2022-09-09T17:03:59;30.70;99.90
44277;DHT22;29973;43.742;1.236;2022-09-09T17:06:26;30.20;99.90
44277;DHT22;29973;43.742;1.236;2022-09-09T17:09:02;30.00;99.90
44277;DHT22;29973;43.742;1.236;2022-09-09T17:11:29;26.20;99.90
44277;DHT22;29973;43.742;1.236;2022-09-09T17:13:55;24.60;99.90
44277;DHT22;29973;43.742;1.236;2022-09-09T17:16:23;27.80;99.90
44277;DHT22;29973;43.742;1.236;2022-09-09T17:18:51;29.20;99.90
44277;DHT22;29973;43.742;1.236;2022-09-09T17:21:19;27.90;99.90
44277;DHT22;29973;43.742;1.236;2022-09-09T17:23:46;25.20;99.90
44277;DHT22;29973;43.742;1.236;2022-09-09T17:26:14;23.90;99.90
44277;DHT22;29973;43.742;1.236;2022-09-09T17:28:43;23.60;99.90
44277;DHT22;29973;43.742;1.236;2022-09-09T17:31:12;23.50;99.90
44277;DHT22;29973;43.742;1.236;2022-09-09T17:33:42;23.30;99.90
44277;DHT22;29973;43.742;1.236;2022-09-09T17:36:18;23.10;99.90
44277;DHT22;29973;43.742;1.236;2022-09-09T17:38:45;22.90;99.90
44277;DHT22;29973;43.742;1.236;2022-09-09T17:41:18;22.70;99.90